Bukoba Airport

Airport
ICAO code: 
HTBU
IATA Code: 
BKZ
Summary
ICAO Region: 
AFI
Territory: 
Location: 
Bukoba, Kagera Region
Serving: 
Bukoba
Elevation: 
3766 ft
Coordinates: 
Aerial View: 
1° 19' 50.016" S, 31° 49' 9.984" E
Metar
Observation
HTBU 280700Z 27010KT 9999 SCT012 FEW014CB BKN080 23/19 Q1019 RERA
Station
Bukoba
Date/Time
2022-01-28 07:00:00
Wind direction
270°
Wind speed
10 kts
Lowest cloud amount
scattered clouds
Temperature
23°C
Dew point
19°C
Humidity
78%
QNH
1019 hPa
Weather condition
n/a

Bukoba Airport is an airport in northwestern Tanzania serving the town of Bukoba and the surrounding Kagera Region. It is adjacent to Lake Victoria.

Climatology

Tropical Savanna climate (Köppen climate classification Aw)

Airport map: 
Aerial View: 

SKYbrary Partners:

Safety knowledge contributed by: